createdAt,value
2023-11-07T00:00:26.000Z,1015.41
2023-11-07T00:01:27.000Z,1015.46
2023-11-07T00:02:27.000Z,1015.4
2023-11-07T00:03:27.000Z,1015.49
2023-11-07T00:04:27.000Z,1015.45
2023-11-07T00:05:28.000Z,1015.48
2023-11-07T00:06:28.000Z,1015.39
2023-11-07T00:07:28.000Z,1015.49
2023-11-07T00:08:28.000Z,1015.46
2023-11-07T00:09:29.000Z,1015.49
2023-11-07T00:10:29.000Z,1015.45
2023-11-07T00:11:29.000Z,1015.52
2023-11-07T00:12:30.000Z,1015.55
2023-11-07T00:13:30.000Z,1015.55
2023-11-07T00:14:30.000Z,1015.51
2023-11-07T00:15:30.000Z,1015.54
2023-11-07T00:16:31.000Z,1015.47
2023-11-07T00:17:31.000Z,1015.57
2023-11-07T00:18:31.000Z,1015.52
2023-11-07T00:19:32.000Z,1015.59
2023-11-07T00:20:32.000Z,1015.61
2023-11-07T00:21:32.000Z,1015.63
2023-11-07T00:22:32.000Z,1015.63
2023-11-07T00:23:33.000Z,1015.65
2023-11-07T00:24:33.000Z,1015.65
2023-11-07T00:25:33.000Z,1015.68
2023-11-07T00:26:34.000Z,1015.65
2023-11-07T00:27:34.000Z,1015.7
2023-11-07T00:28:34.000Z,1015.7
2023-11-07T00:29:35.000Z,1015.72
2023-11-07T00:30:35.000Z,1015.68
2023-11-07T00:31:35.000Z,1015.74
2023-11-07T00:32:36.000Z,1015.67
2023-11-07T00:33:36.000Z,1015.71
2023-11-07T00:34:36.000Z,1015.77
2023-11-07T00:35:36.000Z,1015.81
2023-11-07T00:36:36.000Z,1015.78
2023-11-07T00:37:37.000Z,1015.85
2023-11-07T00:38:37.000Z,1015.87
2023-11-07T00:39:37.000Z,1015.89
2023-11-07T00:40:38.000Z,1015.87
2023-11-07T00:41:38.000Z,1015.87
2023-11-07T00:42:38.000Z,1015.94
2023-11-07T00:43:38.000Z,1016.0
2023-11-07T00:44:39.000Z,1016.02
2023-11-07T00:45:39.000Z,1016.03
2023-11-07T00:46:39.000Z,1016.02
2023-11-07T00:47:39.000Z,1016.06
2023-11-07T00:48:40.000Z,1016.04
2023-11-07T00:49:40.000Z,1016.1
2023-11-07T00:50:40.000Z,1016.07
2023-11-07T00:51:40.000Z,1016.1
2023-11-07T00:52:41.000Z,1016.04
2023-11-07T00:53:41.000Z,1016.06
2023-11-07T00:54:41.000Z,1016.03
2023-11-07T00:55:41.000Z,1016.06
2023-11-07T00:56:42.000Z,1016.1
2023-11-07T00:57:42.000Z,1016.06
2023-11-07T00:58:42.000Z,1016.05
2023-11-07T00:59:43.000Z,1016.06
2023-11-07T01:00:43.000Z,1016.13
2023-11-07T01:01:43.000Z,1016.17
2023-11-07T01:02:43.000Z,1016.1
2023-11-07T01:03:44.000Z,1016.15
2023-11-07T01:04:44.000Z,1016.16
2023-11-07T01:05:44.000Z,1016.2
2023-11-07T01:06:44.000Z,1016.24
2023-11-07T01:07:45.000Z,1016.17
2023-11-07T01:08:45.000Z,1016.18
2023-11-07T01:09:45.000Z,1016.16
2023-11-07T01:10:46.000Z,1016.2
2023-11-07T01:11:46.000Z,1016.21
2023-11-07T01:12:46.000Z,1016.24
2023-11-07T01:13:46.000Z,1016.2
2023-11-07T01:14:47.000Z,1016.2
2023-11-07T01:15:47.000Z,1016.21
2023-11-07T01:16:47.000Z,1016.2
2023-11-07T01:17:47.000Z,1016.22
2023-11-07T01:18:48.000Z,1016.2
2023-11-07T01:19:48.000Z,1016.23
2023-11-07T01:20:48.000Z,1016.21
2023-11-07T01:21:49.000Z,1016.21
2023-11-07T01:22:49.000Z,1016.18
2023-11-07T01:23:49.000Z,1016.13
2023-11-07T01:24:49.000Z,1016.11
2023-11-07T01:25:50.000Z,1016.04
2023-11-07T01:26:50.000Z,1016.06
2023-11-07T01:27:50.000Z,1016.1
2023-11-07T01:28:51.000Z,1016.08
2023-11-07T01:29:51.000Z,1016.1
2023-11-07T01:30:51.000Z,1016.01
2023-11-07T01:31:51.000Z,1016.04
2023-11-07T01:32:52.000Z,1016.03
2023-11-07T01:33:52.000Z,1016.01
2023-11-07T01:34:52.000Z,1016.1
2023-11-07T01:35:52.000Z,1016.02
2023-11-07T01:36:53.000Z,1016.05
2023-11-07T01:37:53.000Z,1016.07
2023-11-07T01:38:53.000Z,1016.09
2023-11-07T01:39:54.000Z,1016.09
2023-11-07T01:40:54.000Z,1016.04
2023-11-07T01:41:54.000Z,1016.06
2023-11-07T01:42:54.000Z,1016.03
2023-11-07T01:43:55.000Z,1016.05
2023-11-07T01:44:55.000Z,1016.09
2023-11-07T01:45:55.000Z,1016.19
2023-11-07T01:46:56.000Z,1016.18
2023-11-07T01:47:56.000Z,1016.22
2023-11-07T01:48:56.000Z,1016.22
2023-11-07T01:49:56.000Z,1016.26
2023-11-07T01:50:57.000Z,1016.24
2023-11-07T01:51:57.000Z,1016.26
2023-11-07T01:52:57.000Z,1016.27
2023-11-07T01:53:57.000Z,1016.3
2023-11-07T01:54:58.000Z,1016.28
2023-11-07T01:55:58.000Z,1016.22
2023-11-07T01:56:58.000Z,1016.24
2023-11-07T01:57:59.000Z,1016.23
2023-11-07T01:58:59.000Z,1016.26
2023-11-07T01:59:59.000Z,1016.22
2023-11-07T02:00:59.000Z,1016.11
2023-11-07T02:02:00.000Z,1016.26
2023-11-07T02:03:00.000Z,1016.25
2023-11-07T02:04:00.000Z,1016.26
2023-11-07T02:05:00.000Z,1016.24
2023-11-07T02:06:01.000Z,1016.27
2023-11-07T02:07:01.000Z,1016.26
2023-11-07T02:08:01.000Z,1016.21
2023-11-07T02:09:02.000Z,1016.23
2023-11-07T02:10:02.000Z,1016.2
2023-11-07T02:11:02.000Z,1016.32
2023-11-07T02:12:02.000Z,1016.28
2023-11-07T02:13:03.000Z,1016.28
2023-11-07T02:14:03.000Z,1016.31
2023-11-07T02:15:03.000Z,1016.26
2023-11-07T02:16:03.000Z,1016.3
2023-11-07T02:17:04.000Z,1016.3
2023-11-07T02:18:04.000Z,1016.33
2023-11-07T02:19:04.000Z,1016.31
2023-11-07T02:20:04.000Z,1016.32
2023-11-07T02:21:05.000Z,1016.4
2023-11-07T02:22:05.000Z,1016.36
2023-11-07T02:23:05.000Z,1016.4
2023-11-07T02:24:05.000Z,1016.39
2023-11-07T02:25:06.000Z,1016.37
2023-11-07T02:26:06.000Z,1016.4
2023-11-07T02:27:06.000Z,1016.4
2023-11-07T02:28:06.000Z,1016.41
2023-11-07T02:29:07.000Z,1016.39
2023-11-07T02:30:07.000Z,1016.41
2023-11-07T02:31:07.000Z,1016.43
2023-11-07T02:32:07.000Z,1016.43
2023-11-07T02:33:08.000Z,1016.44
2023-11-07T02:34:08.000Z,1016.45
2023-11-07T02:35:08.000Z,1016.42
2023-11-07T02:36:08.000Z,1016.44
2023-11-07T02:37:09.000Z,1016.45
2023-11-07T02:38:09.000Z,1016.43
2023-11-07T02:39:09.000Z,1016.41
2023-11-07T02:40:10.000Z,1016.41
2023-11-07T02:41:10.000Z,1016.41
2023-11-07T02:42:10.000Z,1016.43
2023-11-07T02:43:10.000Z,1016.4
2023-11-07T02:44:11.000Z,1016.42
2023-11-07T02:45:11.000Z,1016.42
2023-11-07T02:46:11.000Z,1016.44
2023-11-07T02:47:11.000Z,1016.44
2023-11-07T02:48:12.000Z,1016.4
2023-11-07T02:49:12.000Z,1016.4
2023-11-07T02:50:12.000Z,1016.41
2023-11-07T02:51:13.000Z,1016.41
2023-11-07T02:52:13.000Z,1016.4
2023-11-07T02:53:13.000Z,1016.45
2023-11-07T02:54:13.000Z,1016.39
2023-11-07T02:55:14.000Z,1016.37
2023-11-07T02:56:14.000Z,1016.35
2023-11-07T02:57:14.000Z,1016.28
2023-11-07T02:58:15.000Z,1016.41
2023-11-07T02:59:15.000Z,1016.35
2023-11-07T03:00:15.000Z,1016.33
2023-11-07T03:01:15.000Z,1016.3
2023-11-07T03:02:16.000Z,1016.3
2023-11-07T03:03:16.000Z,1016.29
2023-11-07T03:04:16.000Z,1016.33
2023-11-07T03:05:17.000Z,1016.35
2023-11-07T03:06:17.000Z,1016.36
2023-11-07T03:07:17.000Z,1016.37
2023-11-07T03:08:17.000Z,1016.42
2023-11-07T03:09:18.000Z,1016.36
2023-11-07T03:10:18.000Z,1016.41
2023-11-07T03:11:18.000Z,1016.39
2023-11-07T03:12:18.000Z,1016.46
2023-11-07T03:13:19.000Z,1016.44
2023-11-07T03:14:19.000Z,1016.35
2023-11-07T03:15:19.000Z,1016.45
2023-11-07T03:16:19.000Z,1016.47
2023-11-07T03:17:20.000Z,1016.41
2023-11-07T03:18:20.000Z,1016.44
2023-11-07T03:19:20.000Z,1016.46
2023-11-07T03:20:20.000Z,1016.54
2023-11-07T03:21:21.000Z,1016.55
2023-11-07T03:22:21.000Z,1016.54
2023-11-07T03:23:21.000Z,1016.59
2023-11-07T03:24:22.000Z,1016.54
2023-11-07T03:25:22.000Z,1016.58
2023-11-07T03:26:22.000Z,1016.57
2023-11-07T03:27:22.000Z,1016.58
2023-11-07T03:28:22.000Z,1016.58
2023-11-07T03:29:23.000Z,1016.57
2023-11-07T03:30:23.000Z,1016.54
2023-11-07T03:31:23.000Z,1016.57
2023-11-07T03:32:23.000Z,1016.59
2023-11-07T03:33:24.000Z,1016.64
2023-11-07T03:34:24.000Z,1016.62
2023-11-07T03:35:24.000Z,1016.63
2023-11-07T03:36:25.000Z,1016.67
2023-11-07T03:37:25.000Z,1016.68
2023-11-07T03:38:25.000Z,1016.66
2023-11-07T03:39:26.000Z,1016.61
2023-11-07T03:40:26.000Z,1016.66
2023-11-07T03:41:26.000Z,1016.66
2023-11-07T03:42:26.000Z,1016.65
2023-11-07T03:43:27.000Z,1016.66
2023-11-07T03:44:27.000Z,1016.69
2023-11-07T03:45:27.000Z,1016.69
2023-11-07T03:46:27.000Z,1016.68
2023-11-07T03:47:28.000Z,1016.66
2023-11-07T03:48:28.000Z,1016.73
2023-11-07T03:49:28.000Z,1016.71
2023-11-07T03:50:29.000Z,1016.73
2023-11-07T03:51:29.000Z,1016.74
2023-11-07T03:52:29.000Z,1016.76
2023-11-07T03:53:29.000Z,1016.7
2023-11-07T03:54:30.000Z,1016.7
2023-11-07T03:55:30.000Z,1016.67
2023-11-07T03:56:30.000Z,1016.72
2023-11-07T03:57:30.000Z,1016.67
2023-11-07T03:58:31.000Z,1016.72
2023-11-07T03:59:31.000Z,1016.76
2023-11-07T04:00:31.000Z,1016.76
2023-11-07T04:01:32.000Z,1016.75
2023-11-07T04:02:32.000Z,1016.79
2023-11-07T04:03:32.000Z,1016.76
2023-11-07T04:04:32.000Z,1016.75
2023-11-07T04:05:33.000Z,1016.8
2023-11-07T04:06:33.000Z,1016.82
2023-11-07T04:07:33.000Z,1016.75
2023-11-07T04:08:33.000Z,1016.75
2023-11-07T04:09:34.000Z,1016.8
2023-11-07T04:10:34.000Z,1016.8
2023-11-07T04:11:34.000Z,1016.8
2023-11-07T04:12:34.000Z,1016.8
2023-11-07T04:13:35.000Z,1016.76
2023-11-07T04:14:35.000Z,1016.8
2023-11-07T04:15:35.000Z,1016.69
2023-11-07T04:16:36.000Z,1016.74
2023-11-07T04:17:36.000Z,1016.77
2023-11-07T04:18:36.000Z,1016.69
2023-11-07T04:19:36.000Z,1016.71
2023-11-07T04:20:37.000Z,1016.69
2023-11-07T04:21:37.000Z,1016.79
2023-11-07T04:22:37.000Z,1016.65
2023-11-07T04:23:37.000Z,1016.7
2023-11-07T04:24:38.000Z,1016.68
2023-11-07T04:25:38.000Z,1016.75
2023-11-07T04:26:38.000Z,1016.7
2023-11-07T04:27:38.000Z,1016.72
2023-11-07T04:28:39.000Z,1016.75
2023-11-07T04:29:39.000Z,1016.78
2023-11-07T04:30:39.000Z,1016.73
2023-11-07T04:31:39.000Z,1016.81
2023-11-07T04:32:40.000Z,1016.8
2023-11-07T04:33:40.000Z,1016.87
2023-11-07T04:34:40.000Z,1016.76
2023-11-07T04:35:40.000Z,1016.83
2023-11-07T04:36:41.000Z,1016.87
2023-11-07T04:37:41.000Z,1016.85
2023-11-07T04:38:41.000Z,1016.84
2023-11-07T04:39:42.000Z,1016.93
2023-11-07T04:40:42.000Z,1016.94
2023-11-07T04:41:42.000Z,1016.91
2023-11-07T04:42:42.000Z,1016.88
2023-11-07T04:43:43.000Z,1016.91
2023-11-07T04:44:43.000Z,1016.92
2023-11-07T04:45:43.000Z,1016.93
2023-11-07T04:46:44.000Z,1016.91
2023-11-07T04:47:44.000Z,1016.96
2023-11-07T04:48:44.000Z,1016.93
2023-11-07T04:49:44.000Z,1016.93
2023-11-07T04:50:45.000Z,1016.91
2023-11-07T04:51:45.000Z,1016.98
2023-11-07T04:52:45.000Z,1016.9
2023-11-07T04:53:46.000Z,1016.93
2023-11-07T04:54:46.000Z,1016.92
2023-11-07T04:55:46.000Z,1016.97
2023-11-07T04:56:46.000Z,1016.94
2023-11-07T04:57:47.000Z,1016.94
2023-11-07T04:58:47.000Z,1016.93
2023-11-07T04:59:47.000Z,1016.97
2023-11-07T05:00:47.000Z,1016.98
2023-11-07T05:01:48.000Z,1017.02
2023-11-07T05:02:48.000Z,1017.02
2023-11-07T05:03:48.000Z,1017.05
2023-11-07T05:04:49.000Z,1017.05
2023-11-07T05:05:49.000Z,1017.05
2023-11-07T05:06:49.000Z,1016.99
2023-11-07T05:07:49.000Z,1017.04
2023-11-07T05:08:49.000Z,1017.05
2023-11-07T05:09:50.000Z,1017.07
2023-11-07T05:10:50.000Z,1017.08
2023-11-07T05:11:50.000Z,1017.11
2023-11-07T05:12:50.000Z,1017.0
2023-11-07T05:13:51.000Z,1017.07
2023-11-07T05:14:51.000Z,1017.07
2023-11-07T05:15:51.000Z,1017.1
2023-11-07T05:16:51.000Z,1017.13
2023-11-07T05:17:52.000Z,1017.07
2023-11-07T05:18:52.000Z,1017.1
2023-11-07T05:19:52.000Z,1017.11
2023-11-07T05:20:52.000Z,1017.06
2023-11-07T05:21:53.000Z,1017.12
2023-11-07T05:22:53.000Z,1017.07
2023-11-07T05:23:53.000Z,1017.16
2023-11-07T05:24:54.000Z,1017.15
2023-11-07T05:25:54.000Z,1017.12
2023-11-07T05:26:54.000Z,1017.07
2023-11-07T05:27:55.000Z,1017.18
2023-11-07T05:28:55.000Z,1017.17
2023-11-07T05:29:55.000Z,1017.17
2023-11-07T05:30:55.000Z,1017.17
2023-11-07T05:31:56.000Z,1017.18
2023-11-07T05:32:56.000Z,1017.15
2023-11-07T05:33:56.000Z,1017.13
2023-11-07T05:34:57.000Z,1017.12
2023-11-07T05:35:57.000Z,1017.18
2023-11-07T05:36:57.000Z,1017.14
2023-11-07T05:37:57.000Z,1017.21
2023-11-07T05:38:58.000Z,1017.2
2023-11-07T05:39:58.000Z,1017.24
2023-11-07T05:40:58.000Z,1017.25
2023-11-07T05:41:58.000Z,1017.18
2023-11-07T05:42:59.000Z,1017.18
2023-11-07T05:43:59.000Z,1017.21
2023-11-07T05:44:59.000Z,1017.28
2023-11-07T05:45:59.000Z,1017.27
2023-11-07T05:47:00.000Z,1017.18
2023-11-07T05:48:00.000Z,1017.27
2023-11-07T05:49:00.000Z,1017.26
2023-11-07T05:50:00.000Z,1017.24
2023-11-07T05:51:01.000Z,1017.32
2023-11-07T05:52:01.000Z,1017.29
2023-11-07T05:53:01.000Z,1017.26
2023-11-07T05:54:01.000Z,1017.29
2023-11-07T05:55:02.000Z,1017.31
2023-11-07T05:56:02.000Z,1017.3
2023-11-07T05:57:02.000Z,1017.38
2023-11-07T05:58:03.000Z,1017.39
2023-11-07T05:59:03.000Z,1017.35
2023-11-07T06:00:03.000Z,1017.41
2023-11-07T06:01:04.000Z,1017.4
2023-11-07T06:02:04.000Z,1017.35
2023-11-07T06:03:04.000Z,1017.38
2023-11-07T06:04:04.000Z,1017.44
2023-11-07T06:05:05.000Z,1017.43
2023-11-07T06:06:05.000Z,1017.46
2023-11-07T06:07:05.000Z,1017.41
2023-11-07T06:08:06.000Z,1017.47
2023-11-07T06:09:06.000Z,1017.42
2023-11-07T06:10:06.000Z,1017.46
2023-11-07T06:11:06.000Z,1017.47
2023-11-07T06:12:07.000Z,1017.51
2023-11-07T06:13:07.000Z,1017.48
2023-11-07T06:14:07.000Z,1017.51
2023-11-07T06:15:07.000Z,1017.5
2023-11-07T06:16:08.000Z,1017.5
2023-11-07T06:17:08.000Z,1017.52
2023-11-07T06:18:08.000Z,1017.51
2023-11-07T06:19:09.000Z,1017.54
2023-11-07T06:20:09.000Z,1017.49
2023-11-07T06:21:09.000Z,1017.52
2023-11-07T06:22:09.000Z,1017.51
2023-11-07T06:23:09.000Z,1017.5
2023-11-07T06:24:10.000Z,1017.53
2023-11-07T06:25:10.000Z,1017.56
2023-11-07T06:26:10.000Z,1017.51
2023-11-07T06:27:10.000Z,1017.62
2023-11-07T06:28:11.000Z,1017.61
2023-11-07T06:29:11.000Z,1017.6
2023-11-07T06:30:11.000Z,1017.6
2023-11-07T06:31:11.000Z,1017.59
2023-11-07T06:32:12.000Z,1017.57
2023-11-07T06:33:12.000Z,1017.59
2023-11-07T06:34:12.000Z,1017.59
2023-11-07T06:35:12.000Z,1017.6
2023-11-07T06:36:13.000Z,1017.57
2023-11-07T06:37:13.000Z,1017.61
2023-11-07T06:38:13.000Z,1017.63
2023-11-07T06:39:13.000Z,1017.62
2023-11-07T06:40:14.000Z,1017.64
2023-11-07T06:41:14.000Z,1017.63
2023-11-07T06:42:14.000Z,1017.68
2023-11-07T06:43:14.000Z,1017.67
2023-11-07T06:44:15.000Z,1017.71
2023-11-07T06:45:15.000Z,1017.73
2023-11-07T06:46:15.000Z,1017.73
2023-11-07T06:47:15.000Z,1017.77
2023-11-07T06:48:16.000Z,1017.74
2023-11-07T06:49:16.000Z,1017.71
2023-11-07T06:50:16.000Z,1017.73
2023-11-07T06:51:16.000Z,1017.67
2023-11-07T06:52:17.000Z,1017.67
2023-11-07T06:53:17.000Z,1017.68
2023-11-07T06:54:17.000Z,1017.75
2023-11-07T06:55:17.000Z,1017.72
2023-11-07T06:56:18.000Z,1017.72
2023-11-07T06:57:18.000Z,1017.72
2023-11-07T06:58:18.000Z,1017.74
2023-11-07T06:59:19.000Z,1017.66
2023-11-07T07:00:19.000Z,1017.68
2023-11-07T07:01:19.000Z,1017.72
2023-11-07T07:02:19.000Z,1017.74
2023-11-07T07:03:20.000Z,1017.76
2023-11-07T07:04:20.000Z,1017.78
2023-11-07T07:05:20.000Z,1017.64
2023-11-07T07:06:20.000Z,1017.72
2023-11-07T07:07:21.000Z,1017.8
2023-11-07T07:08:21.000Z,1017.77
2023-11-07T07:09:21.000Z,1017.75
2023-11-07T07:10:22.000Z,1017.72
2023-11-07T07:11:22.000Z,1017.8
2023-11-07T07:12:22.000Z,1017.79
2023-11-07T07:13:22.000Z,1017.82
2023-11-07T07:14:23.000Z,1017.83
2023-11-07T07:15:23.000Z,1017.76
2023-11-07T07:16:23.000Z,1017.78
2023-11-07T07:17:23.000Z,1017.8
2023-11-07T07:18:24.000Z,1017.81
2023-11-07T07:19:24.000Z,1017.85
2023-11-07T07:20:24.000Z,1017.81
2023-11-07T07:21:24.000Z,1017.84
2023-11-07T07:22:25.000Z,1017.83
2023-11-07T07:23:25.000Z,1017.75
2023-11-07T07:24:25.000Z,1017.77
2023-11-07T07:25:25.000Z,1017.82
2023-11-07T07:26:26.000Z,1017.84
2023-11-07T07:27:26.000Z,1017.84
2023-11-07T07:28:26.000Z,1017.83
2023-11-07T07:29:26.000Z,1017.84
2023-11-07T07:30:27.000Z,1017.8
2023-11-07T07:31:27.000Z,1017.85
2023-11-07T07:32:27.000Z,1017.85
2023-11-07T07:33:27.000Z,1017.91
2023-11-07T07:34:28.000Z,1017.88
2023-11-07T07:35:28.000Z,1017.92
2023-11-07T07:36:28.000Z,1017.88
2023-11-07T07:37:28.000Z,1017.9
2023-11-07T07:38:29.000Z,1017.92
2023-11-07T07:39:29.000Z,1017.89
2023-11-07T07:40:29.000Z,1017.9
2023-11-07T07:41:30.000Z,1017.87
2023-11-07T07:42:30.000Z,1017.85
2023-11-07T07:43:30.000Z,1017.87
2023-11-07T07:44:30.000Z,1017.83
2023-11-07T07:45:31.000Z,1017.83
2023-11-07T07:46:31.000Z,1017.88
2023-11-07T07:47:31.000Z,1017.85
2023-11-07T07:48:32.000Z,1017.89
2023-11-07T07:49:32.000Z,1017.91
2023-11-07T07:50:32.000Z,1017.86
2023-11-07T07:51:32.000Z,1017.81
2023-11-07T07:52:33.000Z,1017.8
2023-11-07T07:53:33.000Z,1017.83
2023-11-07T07:54:33.000Z,1017.82
2023-11-07T07:55:33.000Z,1017.86
2023-11-07T07:56:34.000Z,1017.84
2023-11-07T07:57:34.000Z,1017.86
2023-11-07T07:58:34.000Z,1017.92
2023-11-07T07:59:35.000Z,1017.86
2023-11-07T08:00:35.000Z,1017.87
2023-11-07T08:01:35.000Z,1017.89
2023-11-07T08:02:35.000Z,1017.93
2023-11-07T08:03:36.000Z,1017.9
2023-11-07T08:04:36.000Z,1017.93
2023-11-07T08:05:36.000Z,1017.91
2023-11-07T08:06:37.000Z,1017.97
2023-11-07T08:07:37.000Z,1017.93
2023-11-07T08:08:37.000Z,1017.9
2023-11-07T08:09:37.000Z,1017.84
2023-11-07T08:10:38.000Z,1017.95
2023-11-07T08:11:38.000Z,1017.93
2023-11-07T08:12:38.000Z,1017.94
2023-11-07T08:13:38.000Z,1017.96
2023-11-07T08:14:39.000Z,1017.87
2023-11-07T08:15:39.000Z,1017.88
2023-11-07T08:16:39.000Z,1017.93
2023-11-07T08:17:40.000Z,1017.9
2023-11-07T08:18:40.000Z,1017.94
2023-11-07T08:19:40.000Z,1017.88
2023-11-07T08:20:40.000Z,1017.94
2023-11-07T08:21:41.000Z,1017.93
2023-11-07T08:22:41.000Z,1017.96
2023-11-07T08:23:41.000Z,1018.01
2023-11-07T08:24:41.000Z,1017.89
2023-11-07T08:25:42.000Z,1018.0
2023-11-07T08:26:42.000Z,1017.97
2023-11-07T08:27:42.000Z,1017.96
2023-11-07T08:28:42.000Z,1017.94
2023-11-07T08:29:43.000Z,1017.98
2023-11-07T08:30:43.000Z,1017.98
2023-11-07T08:31:43.000Z,1018.05
2023-11-07T08:32:43.000Z,1017.97
2023-11-07T08:33:44.000Z,1018.0
2023-11-07T08:34:44.000Z,1018.09
2023-11-07T08:35:44.000Z,1018.06
2023-11-07T08:36:45.000Z,1018.04
2023-11-07T08:37:45.000Z,1018.03
2023-11-07T08:38:45.000Z,1018.03
2023-11-07T08:39:45.000Z,1018.01
2023-11-07T08:40:46.000Z,1018.0
2023-11-07T08:41:46.000Z,1018.02
2023-11-07T08:42:46.000Z,1017.96
2023-11-07T08:43:46.000Z,1018.01
2023-11-07T08:44:47.000Z,1017.98
2023-11-07T08:45:47.000Z,1017.98
2023-11-07T08:46:47.000Z,1018.02
2023-11-07T08:47:48.000Z,1018.07
2023-11-07T08:48:48.000Z,1017.98
2023-11-07T08:49:48.000Z,1018.01
2023-11-07T08:50:48.000Z,1018.06
2023-11-07T08:51:49.000Z,1018.07
2023-11-07T08:52:49.000Z,1018.04
2023-11-07T08:53:49.000Z,1018.07
2023-11-07T08:54:50.000Z,1017.97
2023-11-07T08:55:50.000Z,1018.07
2023-11-07T08:56:50.000Z,1018.04
2023-11-07T08:57:50.000Z,1018.01
2023-11-07T08:58:51.000Z,1017.99
2023-11-07T08:59:51.000Z,1018.01
2023-11-07T09:00:51.000Z,1017.99
2023-11-07T09:01:51.000Z,1018.03
2023-11-07T09:02:52.000Z,1018.03
2023-11-07T09:03:52.000Z,1018.1
2023-11-07T09:04:52.000Z,1018.03
2023-11-07T09:05:52.000Z,1018.08
2023-11-07T09:06:53.000Z,1017.93
2023-11-07T09:07:53.000Z,1017.97
2023-11-07T09:08:53.000Z,1017.95
2023-11-07T09:09:54.000Z,1018.03
2023-11-07T09:10:54.000Z,1018.0
2023-11-07T09:11:54.000Z,1018.06
2023-11-07T09:12:54.000Z,1018.03
2023-11-07T09:13:55.000Z,1018.01
2023-11-07T09:14:55.000Z,1018.02
2023-11-07T09:15:55.000Z,1018.01
2023-11-07T09:16:56.000Z,1017.97
2023-11-07T09:17:56.000Z,1018.04
2023-11-07T09:18:56.000Z,1017.98
2023-11-07T09:19:56.000Z,1018.06
2023-11-07T09:20:57.000Z,1018.04
2023-11-07T09:21:57.000Z,1018.07
2023-11-07T09:22:57.000Z,1018.09
2023-11-07T09:23:57.000Z,1018.09
2023-11-07T09:24:58.000Z,1018.13
2023-11-07T09:25:58.000Z,1018.05
2023-11-07T09:26:58.000Z,1018.06
2023-11-07T09:27:58.000Z,1018.12
2023-11-07T09:28:59.000Z,1018.08
2023-11-07T09:29:59.000Z,1018.08
2023-11-07T09:30:59.000Z,1018.12
2023-11-07T09:31:59.000Z,1018.13
2023-11-07T09:33:00.000Z,1018.04
2023-11-07T09:34:00.000Z,1018.06
2023-11-07T09:35:00.000Z,1018.0
2023-11-07T09:36:00.000Z,1018.05
2023-11-07T09:37:01.000Z,1018.1
2023-11-07T09:38:01.000Z,1018.13
2023-11-07T09:39:01.000Z,1018.09
2023-11-07T09:40:02.000Z,1018.1
2023-11-07T09:41:02.000Z,1018.19
2023-11-07T09:42:02.000Z,1018.09
2023-11-07T09:43:02.000Z,1018.13
2023-11-07T09:44:03.000Z,1018.16
2023-11-07T09:45:03.000Z,1018.2
2023-11-07T09:46:03.000Z,1018.18
2023-11-07T09:47:04.000Z,1018.15
2023-11-07T09:48:04.000Z,1018.18
2023-11-07T09:49:04.000Z,1018.19
2023-11-07T09:50:04.000Z,1018.22
2023-11-07T09:51:05.000Z,1018.15
2023-11-07T09:52:05.000Z,1018.09
2023-11-07T09:53:05.000Z,1018.18
2023-11-07T09:54:05.000Z,1018.09
2023-11-07T09:55:06.000Z,1018.09
2023-11-07T09:56:06.000Z,1018.09
2023-11-07T09:57:06.000Z,1018.05
2023-11-07T09:58:07.000Z,1018.09
2023-11-07T09:59:07.000Z,1018.06
2023-11-07T10:00:07.000Z,1018.07
2023-11-07T10:01:07.000Z,1018.1
2023-11-07T10:02:08.000Z,1018.08
2023-11-07T10:03:08.000Z,1018.09
2023-11-07T10:04:08.000Z,1018.07
2023-11-07T10:05:08.000Z,1018.11
2023-11-07T10:06:09.000Z,1018.11
2023-11-07T10:07:09.000Z,1018.08
2023-11-07T10:08:09.000Z,1018.07
2023-11-07T10:09:09.000Z,1018.03
2023-11-07T10:10:10.000Z,1018.1
2023-11-07T10:11:10.000Z,1018.14
2023-11-07T10:12:10.000Z,1018.09
2023-11-07T10:13:10.000Z,1018.03
2023-11-07T10:14:11.000Z,1018.12
2023-11-07T10:15:11.000Z,1018.07
2023-11-07T10:16:11.000Z,1018.07
2023-11-07T10:17:11.000Z,1018.09
2023-11-07T10:18:12.000Z,1018.1
2023-11-07T10:19:12.000Z,1018.05
2023-11-07T10:20:12.000Z,1018.09
2023-11-07T10:21:12.000Z,1018.07
2023-11-07T10:22:13.000Z,1018.1
2023-11-07T10:23:13.000Z,1018.16
2023-11-07T10:24:13.000Z,1018.13
2023-11-07T10:25:13.000Z,1018.1
2023-11-07T10:26:14.000Z,1018.07
2023-11-07T10:27:14.000Z,1018.08
2023-11-07T10:28:14.000Z,1018.09
2023-11-07T10:29:15.000Z,1018.08
2023-11-07T10:30:15.000Z,1018.1
2023-11-07T10:31:15.000Z,1018.07
2023-11-07T10:32:15.000Z,1018.1
2023-11-07T10:33:16.000Z,1018.03
2023-11-07T10:34:16.000Z,1018.01
2023-11-07T10:35:16.000Z,1018.04
2023-11-07T10:36:17.000Z,1018.02
2023-11-07T10:37:17.000Z,1018.03
2023-11-07T10:38:17.000Z,1017.99
2023-11-07T10:39:17.000Z,1018.0
2023-11-07T10:40:18.000Z,1017.99
2023-11-07T10:41:18.000Z,1017.92
2023-11-07T10:42:18.000Z,1017.99
2023-11-07T10:43:19.000Z,1017.97
2023-11-07T10:44:19.000Z,1017.98
2023-11-07T10:45:19.000Z,1017.98
2023-11-07T10:46:19.000Z,1017.91
2023-11-07T10:47:20.000Z,1018.0
2023-11-07T10:48:20.000Z,1017.99
2023-11-07T10:49:20.000Z,1017.96
2023-11-07T10:50:21.000Z,1017.95
2023-11-07T10:51:21.000Z,1017.95
2023-11-07T10:52:21.000Z,1017.98
2023-11-07T10:53:21.000Z,1018.05
2023-11-07T10:54:22.000Z,1017.99
2023-11-07T10:55:22.000Z,1017.99
2023-11-07T10:56:22.000Z,1017.9
2023-11-07T10:57:22.000Z,1017.9
2023-11-07T10:58:23.000Z,1017.92
2023-11-07T10:59:23.000Z,1017.93
2023-11-07T11:00:23.000Z,1017.89
2023-11-07T11:01:24.000Z,1017.94
2023-11-07T11:02:24.000Z,1017.84
2023-11-07T11:03:24.000Z,1017.84
2023-11-07T11:04:24.000Z,1017.87
2023-11-07T11:05:25.000Z,1017.88
2023-11-07T11:06:25.000Z,1017.87
2023-11-07T11:07:25.000Z,1017.81
2023-11-07T11:08:26.000Z,1017.87
2023-11-07T11:09:26.000Z,1017.93
2023-11-07T11:10:26.000Z,1017.89
2023-11-07T11:11:26.000Z,1017.83
2023-11-07T11:12:26.000Z,1017.89
2023-11-07T11:13:27.000Z,1017.93
2023-11-07T11:14:27.000Z,1017.9
2023-11-07T11:15:27.000Z,1017.9
2023-11-07T11:16:28.000Z,1017.87
2023-11-07T11:17:28.000Z,1017.84
2023-11-07T11:18:28.000Z,1017.86
2023-11-07T11:19:28.000Z,1017.87
2023-11-07T11:20:29.000Z,1017.88
2023-11-07T11:21:29.000Z,1017.86
2023-11-07T11:22:29.000Z,1017.88
2023-11-07T11:23:30.000Z,1017.88
2023-11-07T11:24:30.000Z,1017.85
2023-11-07T11:25:30.000Z,1017.91
2023-11-07T11:26:30.000Z,1017.9
2023-11-07T11:27:31.000Z,1017.89
2023-11-07T11:28:31.000Z,1017.86
2023-11-07T11:29:31.000Z,1017.91
2023-11-07T11:30:32.000Z,1017.9
2023-11-07T11:31:32.000Z,1017.9
2023-11-07T11:32:32.000Z,1017.89
2023-11-07T11:33:32.000Z,1017.9
2023-11-07T11:34:33.000Z,1017.87
2023-11-07T11:35:33.000Z,1017.84
2023-11-07T11:36:33.000Z,1017.78
2023-11-07T11:37:34.000Z,1017.8
2023-11-07T11:38:34.000Z,1017.76
2023-11-07T11:39:34.000Z,1017.79
2023-11-07T11:40:34.000Z,1017.75
2023-11-07T11:41:35.000Z,1017.74
2023-11-07T11:42:35.000Z,1017.73
2023-11-07T11:43:35.000Z,1017.76
2023-11-07T11:44:35.000Z,1017.7
2023-11-07T11:45:36.000Z,1017.72
2023-11-07T11:46:36.000Z,1017.74
2023-11-07T11:47:36.000Z,1017.69
2023-11-07T11:48:36.000Z,1017.75
2023-11-07T11:49:37.000Z,1017.77
2023-11-07T11:50:37.000Z,1017.76
2023-11-07T11:51:37.000Z,1017.72
2023-11-07T11:52:37.000Z,1017.74
2023-11-07T11:53:38.000Z,1017.8
2023-11-07T11:54:38.000Z,1017.73
2023-11-07T11:55:38.000Z,1017.71
2023-11-07T11:56:38.000Z,1017.72
2023-11-07T11:57:39.000Z,1017.69
2023-11-07T11:58:39.000Z,1017.74
2023-11-07T11:59:39.000Z,1017.69
2023-11-07T12:00:39.000Z,1017.71
2023-11-07T12:01:40.000Z,1017.7
2023-11-07T12:02:40.000Z,1017.71
2023-11-07T12:03:40.000Z,1017.68
2023-11-07T12:04:40.000Z,1017.71
2023-11-07T12:05:41.000Z,1017.72
2023-11-07T12:06:41.000Z,1017.64
2023-11-07T12:07:41.000Z,1017.58
2023-11-07T12:08:42.000Z,1017.68
2023-11-07T12:09:42.000Z,1017.48
2023-11-07T12:10:42.000Z,1017.69
2023-11-07T12:11:42.000Z,1017.58